Portada
METAR-TAF:

METAR-TAF

Aeroports :

Recife, Pernambuco, Brasil

latitud: 08-08S, longitud: 034-55W, altitud: 19 m

Observació

L'informe es va fer fa 31 minuts, a les 01:00 UTC
Vent 8 kt del Sud
Temperatura 24°C
Humitat 83%
Pressió 1015 hPa
Visibilitat 10 km o més
Escasses núvols a una alçada de 1500 ft
Cel ennuvolat a una alçada de 2000 ft
Escasses núvols a una alçada de 2300 ft, Cumulus congestus.

METAR: SBRF 230100Z 17008KT 9999 FEW015 BKN020 FEW023TCU 24/21 Q1015

Hora: 22:31 (01:31 UTC)

Pronòstic

L'informe es va fer fa 4 hores i 51 minuts, a les 20:40 UTC
Pronòstic vàlid del 23 a les 00 UTC al 23 a les 24 UTC
Vent 10 kt del Est/Sud-Est
Visibilitat 10 km o més
Núvols disperses a una alçada de 2200 ft
Probabilitat 30%
l' 23 a les 07 UTC al 23 a les 10 UTC
Visibilitat: 5000 m
Cel ennuvolat a una alçada de 1700 ft
pluja

TAF: SBRF 222040Z 2300/2324 12010KT 9999 SCT022 TN25/2309Z TX28/2316Z PROB30 2307/2310 5000 RA BKN017 RMK PHQ

Observacions i pronòstics meteorològics de més de 4000 aeroports (METAR i TAF).

Les estacions disponibles són els punts grocs i vermells al mapa.

Posi el ratolí al punt desitjat per veure el nom de l'estació.

Feu clic per veure les observacions i els pronòstics meteorològics.

Per canviar el mapa: feu clic els botons verds amb una creu de color negre per apropar; al botó verd amb un guió per allunyar la imatge; o en les fletxes verdes per a mapes adjacents.


METAR-TAF: